METAR Rapporter från flygplatser

 

ESTA - Ängelholm, Sweden
Distance from station: SSV 17km
Uppdaterad: 2020-01-23 18:20
Mist, Helmulet
Mist, Helmulet
 Vind från V
Vind: V 30 km/h
Temperatur: 6°C
Wind Chill: 2°C
Daggpunkt: 6°C
Luftfuktighet: 100%
Barometer: 1022 hPa
Summering: Mist
Clouds: Helmulet
Visibility: 2 km
Cloud details: Helmulet 30 m
2020/01/23 17:20 ESTA 231720Z 27016KT 2000 BR OVC001 06/06 Q1022
ESMT - Halmstad, Sweden
Distance from station: N 26km
Uppdaterad: 2020-01-23 18:20
Helmulet
Helmulet
 Vind från VSV
Vind: VSV 30 km/h
Temperatur: 6°C
Wind Chill: 2°C
Daggpunkt: 6°C
Luftfuktighet: 100%
Barometer: 1021 hPa
Clouds: Helmulet
Visibility: 10 km
Cloud details: Helmulet 61 m
2020/01/23 17:20 ESMT 231720Z 25016KT 9999 OVC002 06/06 Q1021
 
ESTL - Ljungbyhed, Sweden
Distance from station: SSO 45km
Uppdaterad: 2020-01-23 18:20
Mist, Helmulet
Mist, Helmulet
 Vind från VSV
Vind: VSV 24 km/h
Temperatur: 6°C
Wind Chill: 2°C
Daggpunkt: 6°C
Luftfuktighet: 100%
Barometer: 1022 hPa
Summering: Mist
Clouds: Helmulet
Visibility: 4 km
Cloud details: Enstaka moln 91 m
Helmulet 122 m
2020/01/23 17:20 ESTL 231720Z AUTO 25013KT 3500 BR FEW003/// OVC004/// 06/06 Q1022
EKCH - Copenhagen/Kastrup, Denmark
Distance from station: S 92km
Uppdaterad: 2020-01-23 18:20
Light drizzle, Mist, Helmulet
Light drizzle, Mist, Helmulet
 Vind från VSV
Vind: VSV 26 km/h
Temperatur: 6°C
Wind Chill: 2°C
Daggpunkt: 5°C
Luftfuktighet: 93%
Barometer: 1024 hPa
Summering: Light drizzle, Mist
Clouds: Helmulet
Visibility: 4 km
Cloud details: Helmulet 91 m
2020/01/23 17:20 EKCH 231720Z 25014KT 3500 -DZ BR OVC003 06/05 Q1024 TEMPO 2500 BKN005
 
ESMK - Kristianstad/Everöd, Sweden
Distance from station: SO 93km
Uppdaterad: 2020-01-23 18:20
Mist, Helmulet
Mist, Helmulet
 Vind från V
Vind: V 15 km/h
Temperatur: 6°C
Wind Chill: 3°C
Daggpunkt: 5°C
Luftfuktighet: 93%
Barometer: 1022 hPa
Summering: Mist
Clouds: Helmulet
Visibility: 3 km
Cloud details: Helmulet 122 m
2020/01/23 17:20 ESMK 231720Z 26008KT 3200 BR OVC004 06/05 Q1022
ESMS - Malmö/Sturup, Sweden
Distance from station: SSO 104km
Uppdaterad: 2020-01-23 18:20
Mist, Helmulet
Mist, Helmulet
 Vind från VSV
Vind: VSV 28 km/h
Temperatur: 5°C
Wind Chill: 1°C
Daggpunkt: 5°C
Luftfuktighet: 100%
Barometer: 1023 hPa
Summering: Mist
Clouds: Helmulet
Visibility: 2 km
Cloud details: Helmulet 91 m
2020/01/23 17:20 ESMS 231720Z 25015KT 1800 R17/P1500N R35/P1500N BR OVC003 05/05 Q1023 R17/19//95
 
EKRK - Copenhagen/Roskilde, Denmark
Distance from station: SSV 108km
Uppdaterad: 2020-01-23 18:20
Helmulet
Helmulet
 Vind från VSV
Vind: VSV 19 km/h
Temperatur: 5°C
Wind Chill: 1°C
Daggpunkt: 5°C
Luftfuktighet: 100%
Barometer: 1024 hPa
Clouds: Helmulet
Visibility: 8 km
Cloud details: Helmulet 152 m
2020/01/23 17:20 EKRK 231720Z AUTO 25010KT 8000 OVC005/// 05/05 Q1024
ESMX - Växjö/Kronoberg, Sweden
Distance from station: ONO 124km
Uppdaterad: 2020-01-23 18:20
Drizzle, Mist, Helmulet
Drizzle, Mist, Helmulet
 Vind från SV
Vind: SV 20 km/h
Temperatur: 6°C
Wind Chill: 2°C
Daggpunkt: 6°C
Luftfuktighet: 100%
Barometer: 1018 hPa
Summering: Drizzle, Mist
Clouds: Helmulet
Visibility: 3 km
Cloud details: Helmulet 61 m
2020/01/23 17:20 ESMX 231720Z 23011KT 3100 DZ BR OVC002 06/06 Q1018
 
EKAH - Tirstrup, Denmark
Distance from station: V 141km
Uppdaterad: 2020-01-23 18:20
Helmulet
Helmulet
 Vind från VSV
Vind: VSV 17 km/h
Temperatur: 8°C
Wind Chill: 5°C
Daggpunkt: 7°C
Luftfuktighet: 93%
Barometer: 1023 hPa
Clouds: Helmulet
Visibility: 10 km
Cloud details: Helmulet 152 m
2020/01/23 17:20 EKAH 231720Z AUTO 24009KT 190V270 9999NDV OVC005/// 08/07 Q1023
ESGG - Göteborg/Landvetter, Sweden
Distance from station: NNV 142km
Uppdaterad: 2020-01-23 18:20
Mist, Helmulet
Mist, Helmulet
 Vind från VSV
Vind: VSV 24 km/h
Temperatur: 6°C
Wind Chill: 2°C
Daggpunkt: 6°C
Luftfuktighet: 100%
Barometer: 1018 hPa
Summering: Mist
Clouds: Helmulet
Visibility: 3 km
Cloud details: Helmulet 91 m
2020/01/23 17:20 ESGG 231720Z 24013KT 3000 BR VV003 06/06 Q1018 R21/29//95
 
ESDF - Ronneby, Sweden
Distance from station: O 147km
Uppdaterad: 2020-01-23 18:20
Light drizzle, Mist, Helmulet
Light drizzle, Mist, Helmulet
 Vind från VSV
Vind: VSV 17 km/h
Temperatur: 5°C
Wind Chill: 2°C
Daggpunkt: 5°C
Luftfuktighet: 100%
Barometer: 1020 hPa
Summering: Light drizzle, Mist
Clouds: Helmulet
Visibility: 3 km
Cloud details: Helmulet 91 m
2020/01/23 17:20 ESDF 231720Z 25009KT 2500 -DZ BR OVC003 05/05 Q1020
ESGP - Göteborg/Säve, Sweden
Distance from station: NNV 161km
Uppdaterad: 2017-01-02 11:20
NOT Current
Klart
Klart
 Vind från calm
Vind: Vindstilla
Temperatur: -2°C
Daggpunkt: -4°C
Luftfuktighet: 86%
Barometer: 1012 hPa
Clouds: Klart
Visibility: 10 km
2017/01/02 10:20 ESGP 021020Z AUTO 00000KT 9999 NCD M02/M04 Q1012
 
ESGJ - Jönköping Airport, Sweden
Distance from station: NNO 164km
Uppdaterad: 2020-01-23 18:20
Mist, Övervägande molnigt
Mist, Övervägande molnigt
 Vind från VSV
Vind: VSV 24 km/h
Temperatur: 6°C
Wind Chill: 2°C
Daggpunkt: 6°C
Luftfuktighet: 100%
Barometer: 1015 hPa
Summering: Mist
Clouds: Övervägande molnigt
Visibility: 4 km
Cloud details: Övervägande molnigt 183 m
2020/01/23 17:20 ESGJ 231720Z 24013KT 4000 BR BKN006 06/06 Q1015
EKAV - Avno, Denmark
Distance from station: SSV 168km
Uppdaterad: 2016-10-04 06:20
NOT Current
Klart
Klart
 
Barometer: 1039 hPa
Clouds: Klart
Visibility: 10 km
2016/10/04 04:20 EKAV 040420Z AUTO ///// 9999NDV NCD ///// Q1039
 
EKRN - Rönne, Denmark
Distance from station: SO 191km
Uppdaterad: 2020-01-23 18:20
Helmulet
Helmulet
 Vind från V
Vind: V 28 km/h
Temperatur: 5°C
Wind Chill: 1°C
Daggpunkt: 5°C
Luftfuktighet: 100%
Barometer: 1025 hPa
Clouds: Helmulet
Visibility: 10 km
Cloud details: Helmulet 152 m
2020/01/23 17:20 EKRN 231720Z AUTO 27015KT 9999 // OVC005/// 05/05 Q1025
EKOD - Odense/Beldringe, Denmark
Distance from station: VSV 193km
Uppdaterad: 2020-01-23 16:50
NOT Current
Helmulet
Helmulet
 Vind från VSV
Vind: VSV 22 km/h
Temperatur: 6°C
Wind Chill: 2°C
Daggpunkt: 5°C
Luftfuktighet: 93%
Barometer: 1026 hPa
Clouds: Helmulet
Visibility: 10 km
Cloud details: Delvis molnigt 152 m
Helmulet 244 m
2020/01/23 15:50 EKOD 231550Z 24012KT 9999 SCT005 OVC008 06/05 Q1026
 
EKYT - AAlborg, Denmark
Distance from station: VNV 199km
Uppdaterad: 2020-01-23 18:20
Helmulet
Helmulet
 Vind från V
Vind: V 30 km/h
Temperatur: 7°C
Wind Chill: 3°C
Daggpunkt: 7°C
Luftfuktighet: 100%
Barometer: 1021 hPa
Clouds: Helmulet
Visibility: 7 km
Cloud details: Övervägande molnigt 91 m
Helmulet 152 m
2020/01/23 17:20 EKYT 231720Z AUTO 26016KT 7000 BKN003/// OVC005/// 07/07 Q1021 TEMPO 3000 BR BKN005
EKSN - Sindal Airport, Denmark
Distance from station: NV 201km
Uppdaterad: 2020-01-23 13:50
NOT Current
Helmulet
Helmulet
 Vind från V
Vind: V 37 km/h
Temperatur: 8°C
Wind Chill: 3°C
Daggpunkt: 8°C
Luftfuktighet: 100%
Barometer: 1022 hPa
Clouds: Helmulet
Visibility: 8 km
Cloud details: Helmulet 152 m
2020/01/23 12:50 EKSN 231250Z 26020KT 8000 OVC005 08/08 Q1022
 
ESMQ - Kalmar, Sweden
Distance from station: O 211km
Uppdaterad: 2020-01-23 18:20
Helmulet
Helmulet
 Vind från VSV
Vind: VSV 26 km/h
Temperatur: 7°C
Wind Chill: 3°C
Daggpunkt: 5°C
Luftfuktighet: 87%
Barometer: 1018 hPa
Clouds: Helmulet
Visibility: 10 km
Cloud details: Helmulet 335 m
2020/01/23 17:20 ESMQ 231720Z 25014KT 9999 OVC011 07/05 Q1018
ESGT - Trollhättan, Sweden
Distance from station: N 212km
Uppdaterad: 2020-01-23 18:20
Övervägande molnigt
Övervägande molnigt
 Vind från SV
Vind: SV 22 km/h
Temperatur: 8°C
Wind Chill: 4°C
Daggpunkt: 6°C
Luftfuktighet: 87%
Barometer: 1016 hPa
Clouds: Övervägande molnigt
Visibility: 10 km
Cloud details: Övervägande molnigt 274 m
2020/01/23 17:20 ESGT 231720Z 23012KT 9999 BKN009 08/06 Q1016